^^
Grace C. Lehan Memorial Weather Station Historical Data
Daily Summary for December 19, 2021 Units:  Metric    English   Both
Daily Weekly Monthly Yearly
  High: Low: Average:
Temperature: 3.4 °C -3.3 °C 1.2 °C
Dew Point: 2.7 °C -6.4 °C -1.6 °C
Humidity: 96% 68.2% 82%
Wind Speed: 19.6km/h 0km/h 5.8km/h
Wind Gust: 40.2km/h - -
Wind- - NNW
Pressure: 1023.6 hPa 1008 hPa -
Precipitation: 4.06 mm    
 
 
Tabular Data for December 19, 2021
Time Temperature Dew Point Pressure Wind Wind Speed Wind Gust Humidity Rainfall Rate (Hourly) solar
00:04 2.6 °C 1.8 °C 1008.7 hPa NW 2.7 km/h 9.7 km/h 95% 2.79 mm 0 W/m2
00:09 2.6 °C 1.8 °C 1008.7 hPa NNW 3.1 km/h 8 km/h 95% 3.3 mm 0 W/m2
00:14 2.6 °C 1.8 °C 1008.7 hPa NNW 4.8 km/h 11.3 km/h 95% 3.81 mm 0 W/m2
00:19 2.5 °C 1.8 °C 1008.4 hPa NNW 2.6 km/h 11.3 km/h 95% 4.06 mm 0 W/m2
00:24 2.5 °C 1.8 °C 1008.7 hPa NNW 5.3 km/h 14.5 km/h 95% 4.32 mm 0 W/m2
00:29 2.5 °C 1.8 °C 1008.7 hPa NNW 2.1 km/h 14.5 km/h 95% 4.32 mm 0 W/m2
00:34 2.5 °C 1.8 °C 1008.7 hPa NNW 1.8 km/h 14.5 km/h 95% 4.32 mm 0 W/m2
00:39 2.5 °C 1.8 °C 1008.7 hPa NNW 1.8 km/h 9.7 km/h 95% 4.57 mm 0 W/m2
00:44 2.5 °C 1.8 °C 1008.7 hPa NW 1.4 km/h 9.7 km/h 95% 4.57 mm 0 W/m2
00:49 2.6 °C 1.8 °C 1008.7 hPa NW 0.5 km/h 9.7 km/h 95% 4.57 mm 0 W/m2
00:54 2.6 °C 1.8 °C 1008.7 hPa Calm   9.7 km/h 95% 4.83 mm 0 W/m2
00:59 2.6 °C 1.8 °C 1008.7 hPa NW 0.6 km/h 9.7 km/h 95% 4.83 mm 0 W/m2
01:04 2.6 °C 1.8 °C 1008.7 hPa NW 1.8 km/h 9.7 km/h 95% 4.83 mm 0 W/m2
01:09 2.6 °C 1.9 °C 1009 hPa NW 3.4 km/h 8 km/h 95% 2.54 mm 0 W/m2
01:14 2.7 °C 1.9 °C 1009 hPa NNW 1.4 km/h 8 km/h 95% 2.79 mm 0 W/m2
01:19 2.7 °C 1.9 °C 1008.7 hPa NNW 1.6 km/h 11.3 km/h 95% 2.79 mm 0 W/m2
01:24 2.7 °C 1.9 °C 1008.7 hPa NNW 0.8 km/h 11.3 km/h 95% 2.79 mm 0 W/m2
01:29 2.7 °C 1.9 °C 1008.4 hPa NNW 1.8 km/h 11.3 km/h 95% 2.79 mm 0 W/m2
01:34 2.7 °C 1.9 °C 1008.4 hPa NNW 0.6 km/h 11.3 km/h 95% 2.79 mm 0 W/m2
01:39 2.7 °C 2 °C 1008.4 hPa NNW 0.2 km/h 4.8 km/h 95% 0.76 mm 0 W/m2
01:44 2.7 °C 2 °C 1008 hPa North 1.8 km/h 11.3 km/h 95% 0.76 mm 0 W/m2
01:49 2.7 °C 2 °C 1008.4 hPa North 0.3 km/h 11.3 km/h 95% 1.02 mm 0 W/m2
01:54 2.8 °C 2.1 °C 1008.4 hPa North 2.3 km/h 11.3 km/h 95% 1.02 mm 0 W/m2
01:59 2.8 °C 2.1 °C 1008.4 hPa NNW 1.9 km/h 11.3 km/h 95% 1.02 mm 0 W/m2
02:04 2.8 °C 2.1 °C 1008.4 hPa NNW 0.5 km/h 11.3 km/h 95% 1.02 mm 0 W/m2
02:09 2.8 °C 2.1 °C 1008.4 hPa NNW 1 km/h 8 km/h 95% 0.76 mm 0 W/m2
02:14 2.8 °C 2.1 °C 1008.4 hPa Calm   8 km/h 95% 0.76 mm 0 W/m2
02:19 2.8 °C 2.1 °C 1008.4 hPa NNW 0.2 km/h 8 km/h 95% 1.02 mm 0 W/m2
02:24 2.8 °C 2.1 °C 1008.7 hPa NNW 1.8 km/h 8 km/h 95% 1.02 mm 0 W/m2
02:29 2.8 °C 2.1 °C 1009 hPa NNW 0.3 km/h 8 km/h 95% 1.27 mm 0 W/m2
02:34 2.8 °C 2.1 °C 1009 hPa NNW 0.5 km/h 8 km/h 95.3% 1.27 mm 0 W/m2
02:39 2.8 °C 2.3 °C 1009 hPa NNW 1.1 km/h 8 km/h 96% 1.02 mm 0 W/m2
02:44 2.8 °C 2.3 °C 1009 hPa NNW 0.2 km/h 8 km/h 96% 1.02 mm 0 W/m2
02:49 2.9 °C 2.3 °C 1008.7 hPa NNW 0.8 km/h 8 km/h 96% 1.02 mm 0 W/m2
02:54 2.9 °C 2.3 °C 1009 hPa NNW 1.3 km/h 9.7 km/h 96% 1.02 mm 0 W/m2
02:59 2.9 °C 2.3 °C 1009 hPa NNW 2.6 km/h 9.7 km/h 96% 1.02 mm 0 W/m2
03:04 2.9 °C 2.3 °C 1009 hPa NNW 0.5 km/h 9.7 km/h 96% 1.02 mm 0 W/m2
03:09 2.9 °C 2.4 °C 1009 hPa NNW 1 km/h 6.4 km/h 96% 0.76 mm 0 W/m2
03:14 2.9 °C 2.3 °C 1009 hPa NNW 0.8 km/h 6.4 km/h 95.8% 0.76 mm 0 W/m2
03:19 3 °C 2.3 °C 1009.4 hPa NNW 0.5 km/h 6.4 km/h 95.5% 0.76 mm 0 W/m2
03:24 3 °C 2.3 °C 1008.7 hPa NW 0.5 km/h 11.3 km/h 95.2% 0.76 mm 0 W/m2
03:29 3 °C 2.3 °C 1008.7 hPa NW 1.4 km/h 11.3 km/h 95% 1.02 mm 0 W/m2
03:34 3 °C 2.3 °C 1008.7 hPa NW 1.6 km/h 11.3 km/h 95% 1.02 mm 0 W/m2
03:39 3 °C 2.3 °C 1009 hPa NNW 3.1 km/h 14.5 km/h 95% 0.25 mm 0 W/m2
03:44 3 °C 2.3 °C 1009 hPa NW 3.7 km/h 14.5 km/h 95% 0.25 mm 0 W/m2
03:49 3 °C 2.3 °C 1009 hPa NW 2.9 km/h 14.5 km/h 95% 0.25 mm 0 W/m2
03:54 3 °C 2.3 °C 1009 hPa NW 3.2 km/h 14.5 km/h 95% 0.25 mm 0 W/m2
03:59 3 °C 2.3 °C 1009 hPa North 1.8 km/h 14.5 km/h 95% 0.25 mm 0 W/m2
04:04 3 °C 2.3 °C 1008.7 hPa Calm     95% 0 mm 0 W/m2
04:09 3 °C 2.3 °C 1009 hPa North 3.5 km/h 11.3 km/h 95% 0.25 mm 0 W/m2
04:14 3 °C 2.3 °C 1009 hPa NNW 2.4 km/h 11.3 km/h 95% 0.25 mm 0 W/m2
04:19 3 °C 2.3 °C 1009 hPa NNW 1.9 km/h 11.3 km/h 95% 0.25 mm 0 W/m2
04:24 3 °C 2.3 °C 1009 hPa NNW 3.1 km/h 11.3 km/h 95% 0.25 mm 0 W/m2
04:29 3 °C 2.3 °C 1009 hPa NNW 2.6 km/h 11.3 km/h 95% 0.25 mm 0 W/m2
04:34 3.1 °C 2.3 °C 1009 hPa NNW 0.3 km/h 11.3 km/h 95% 0.25 mm 0 W/m2
04:39 3.1 °C 2.3 °C 1009 hPa NNW 2.9 km/h 8 km/h 95% 0 mm 0 W/m2
04:44 3.1 °C 2.3 °C 1008.7 hPa NNW 0.5 km/h 8 km/h 95% 0 mm 0 W/m2
04:49 3.1 °C 2.3 °C 1009 hPa NNW 0.3 km/h 8 km/h 95% 0 mm 0 W/m2
04:54 3.1 °C 2.4 °C 1009.4 hPa NNW 1.8 km/h 8 km/h 95% 0 mm 0 W/m2
04:59 3.1 °C 2.4 °C 1009.4 hPa NNW 1 km/h 8 km/h 95% 0 mm 0 W/m2
05:04 3.1 °C 2.4 °C 1009.4 hPa NNW 0.2 km/h 8 km/h 95% 0 mm 0 W/m2
05:09 3.2 °C 2.6 °C 1009.7 hPa Calm   3.2 km/h 95.7% 0 mm 0 W/m2
05:14 3.2 °C 2.6 °C 1009.7 hPa Calm   3.2 km/h 96% 0 mm 0 W/m2
05:19 3.2 °C 2.6 °C 1010 hPa Calm   3.2 km/h 96% 0 mm 0 W/m2
05:24 3.2 °C 2.7 °C 1010 hPa Calm   3.2 km/h 96% 0 mm 0 W/m2
05:29 3.2 °C 2.7 °C 1010 hPa Calm   3.2 km/h 96% 0 mm 0 W/m2
05:34 3.3 °C 2.7 °C 1010 hPa NNW 0.2 km/h 3.2 km/h 96% 0 mm 0 W/m2
05:39 3.3 °C 2.7 °C 1010.4 hPa NNW 2.3 km/h 8 km/h 96% 0 mm 0 W/m2
05:44 3.3 °C 2.7 °C 1010.4 hPa NNW 1.3 km/h 8 km/h 96% 0 mm 0 W/m2
05:49 3.3 °C 2.7 °C 1010.7 hPa NW 2.9 km/h 16.1 km/h 95.5% 0 mm 0 W/m2
05:54 3.4 °C 2.7 °C 1010.7 hPa NW 2.4 km/h 19.3 km/h 95% 0 mm 0 W/m2
05:59 3.3 °C 2.6 °C 1010.7 hPa NW 6.9 km/h 19.3 km/h 95% 0 mm 0 W/m2
06:04 3.3 °C 2.6 °C 1010.7 hPa WNW 4.7 km/h 22.5 km/h 95% 0 mm 0 W/m2
06:09 3.3 °C 2.6 °C 1010.7 hPa WNW 2.9 km/h 22.5 km/h 95% 0 mm 0 W/m2
06:14 3.3 °C 2.6 °C 1011.1 hPa NW 1.6 km/h 22.5 km/h 95% 0 mm 0 W/m2
06:19 3.3 °C 2.6 °C 1011.4 hPa NNW 1.3 km/h 22.5 km/h 95% 0 mm 0 W/m2
06:24 3.3 °C 2.6 °C 1011.7 hPa NW 1.4 km/h 22.5 km/h 95% 0 mm 0 W/m2
06:29 3.3 °C 2.6 °C 1011.7 hPa NNW 1.6 km/h 22.5 km/h 95% 0 mm 0 W/m2
06:34 3.3 °C 2.6 °C 1011.7 hPa NNW 1.1 km/h 22.5 km/h 95% 0 mm 0 W/m2
06:39 3.3 °C 2.6 °C 1011.7 hPa NNW 0.5 km/h 8 km/h 95% 0 mm 0 W/m2
06:44 3.3 °C 2.6 °C 1012.1 hPa NW 2.7 km/h 11.3 km/h 95% 0 mm 0 W/m2
06:49 3.3 °C 2.5 °C 1012.1 hPa NW 5.1 km/h 16.1 km/h 94.8% 0 mm 0 W/m2
06:54 3.2 °C 2.3 °C 1012.1 hPa NNW 5.3 km/h 16.1 km/h 94% 0 mm 0 W/m2
06:59 3.2 °C 2.3 °C 1012.1 hPa NW 4.7 km/h 16.1 km/h 94% 0 mm 0 W/m2
07:04 3.1 °C 2.2 °C 1012.4 hPa NW 7.4 km/h 24.1 km/h 93.5% 0 mm 0 W/m2
07:09 3.1 °C 2.1 °C 1012.4 hPa NW 6.9 km/h 24.1 km/h 93% 0 mm 0 W/m2
07:14 3.1 °C 2 °C 1012.4 hPa NW 11.7 km/h 27.4 km/h 92.6% 0 mm 0 W/m2
07:19 3.1 °C 1.9 °C 1012.1 hPa NW 10.6 km/h 32.2 km/h 92% 0 mm 0 W/m2
07:24 3 °C 1.7 °C 1012.4 hPa NW 15.4 km/h 37 km/h 91% 0 mm 0 W/m2
07:29 3 °C 1.4 °C 1012.4 hPa NW 10.3 km/h 37 km/h 89.7% 0 mm 5 W/m2
07:34 2.9 °C 1.3 °C 1012.8 hPa NW 10.6 km/h 37 km/h 89% 0 mm 7 W/m2
07:39 2.9 °C 1.2 °C 1012.8 hPa NW 10.6 km/h 27.4 km/h 88.4% 0 mm 5 W/m2
07:44 2.9 °C 1.1 °C 1012.8 hPa NW 9.8 km/h 27.4 km/h 87.6% 0 mm 9 W/m2
07:49 3 °C 1.1 °C 1012.8 hPa NW 8.7 km/h 27.4 km/h 87% 0 mm 9 W/m2
07:54 3 °C 1.3 °C 1013.1 hPa NNW 8.4 km/h 27.4 km/h 88.5% 0 mm 7 W/m2
07:59 3 °C 1.4 °C 1013.1 hPa NW 4.2 km/h 27.4 km/h 89.6% 0 mm 7 W/m2
08:00 3 °C 1.8 °C 1013.1 hPa NW 8 km/h 27.4 km/h 92% 0 mm 7 W/m2
08:09 3 °C 1.4 °C 1013.4 hPa NW 14.5 km/h 33.8 km/h 89.1% 0 mm 32 W/m2
08:14 2.9 °C 0.8 °C 1013.8 hPa NW 14.6 km/h 33.8 km/h 85.6% 0 mm 37 W/m2
08:19 2.9 °C 0.6 °C 1013.4 hPa WNW 19.5 km/h 33.8 km/h 84.6% 0 mm 46 W/m2
08:24 2.9 °C 0.5 °C 1013.1 hPa NW 15.6 km/h 33.8 km/h 84% 0 mm 53 W/m2
08:29 2.9 °C 0.5 °C 1013.4 hPa NW 18.2 km/h 38.6 km/h 84% 0 mm 60 W/m2
08:34 2.9 °C 0.5 °C 1013.8 hPa NW 19.3 km/h 38.6 km/h 84% 0 mm 65 W/m2
08:39 2.9 °C 0.4 °C 1013.8 hPa WNW 19.6 km/h 33.8 km/h 83.9% 0 mm 63 W/m2
08:44 2.8 °C 0.2 °C 1013.8 hPa NW 16.3 km/h 33.8 km/h 83% 0 mm 91 W/m2
08:49 2.7 °C 0.1 °C 1013.8 hPa WNW 14.6 km/h 35.4 km/h 83% 0 mm 84 W/m2
08:54 2.7 °C 0.1 °C 1013.8 hPa NW 15.4 km/h 35.4 km/h 83% 0 mm 76 W/m2
08:59 2.6 °C 0 °C 1014.1 hPa NW 16.6 km/h 35.4 km/h 83% 0 mm 76 W/m2
09:04 2.6 °C -0.2 °C 1014.1 hPa NW 17.7 km/h 37 km/h 82.2% 0 mm 91 W/m2
09:09 2.5 °C -0.3 °C 1013.8 hPa NW 16.1 km/h 40.2 km/h 81.4% 0 mm 95 W/m2
09:14 2.5 °C -0.4 °C 1014.1 hPa NW 14.3 km/h 40.2 km/h 81% 0 mm 100 W/m2
09:19 2.5 °C -0.4 °C 1014.4 hPa NW 9.5 km/h 40.2 km/h 81% 0 mm 120 W/m2
09:24 2.6 °C -0.4 °C 1014.4 hPa NW 14 km/h 40.2 km/h 81% 0 mm 120 W/m2
09:29 2.6 °C -0.4 °C 1014.8 hPa NW 7.9 km/h 40.2 km/h 80.8% 0 mm 72 W/m2
09:34 2.6 °C -0.5 °C 1014.8 hPa NW 12.9 km/h 40.2 km/h 80.1% 0 mm 74 W/m2
09:39 2.5 °C -0.6 °C 1014.8 hPa NW 14 km/h 27.4 km/h 80% 0 mm 62 W/m2
09:44 2.4 °C -0.7 °C 1014.8 hPa NW 13.7 km/h 29 km/h 80% 0 mm 107 W/m2
09:49 2.4 °C -0.8 °C 1015.1 hPa NW 6.8 km/h 29 km/h 79.8% 0 mm 72 W/m2
09:54 2.4 °C -0.7 °C 1015.5 hPa NW 9.8 km/h 29 km/h 80% 0 mm 134 W/m2
09:59 2.4 °C -0.6 °C 1015.5 hPa NW 13.5 km/h 29 km/h 80% 0 mm 155 W/m2
10:04 2.6 °C -0.6 °C 1015.5 hPa NW 9.3 km/h 29 km/h 80% 0 mm 135 W/m2
10:09 2.6 °C -0.6 °C 1015.5 hPa NW 6.3 km/h 27.4 km/h 79.1% 0 mm 162 W/m2
10:14 2.7 °C -0.4 °C 1015.5 hPa NW 11.9 km/h 27.4 km/h 79.7% 0 mm 257 W/m2
10:19 2.9 °C -0.2 °C 1015.5 hPa NW 15.6 km/h 32.2 km/h 79.5% 0 mm 473 W/m2
10:24 3.3 °C -0.1 °C 1015.5 hPa NNW 13.8 km/h 32.2 km/h 78.6% 0 mm 424 W/m2
10:29 3.4 °C -0.1 °C 1015.5 hPa NW 14 km/h 32.2 km/h 77.7% 0 mm 265 W/m2
10:34 3.4 °C -0.2 °C 1015.8 hPa NW 13.4 km/h 32.2 km/h 77% 0 mm 218 W/m2
10:39 3.3 °C -0.3 °C 1015.8 hPa NW 9 km/h 32.2 km/h 77% 0 mm 246 W/m2
10:44 3.3 °C -0.3 °C 1015.5 hPa NW 7.2 km/h 32.2 km/h 77% 0 mm 246 W/m2
10:49 3.3 °C -0.2 °C 1015.5 hPa NW 8.4 km/h 32.2 km/h 77.4% 0 mm 229 W/m2
10:54 3.3 °C -0.3 °C 1015.8 hPa NW 6 km/h 32.2 km/h 77.2% 0 mm 190 W/m2
10:59 3.3 °C -0.4 °C 1015.8 hPa NW 12.6 km/h 32.2 km/h 76.4% 0 mm 190 W/m2
11:04 3.1 °C -0.8 °C 1015.8 hPa NW 11.3 km/h 37 km/h 75.8% 0 mm 139 W/m2
11:09 2.8 °C -1 °C 1015.8 hPa NW 16.9 km/h 37 km/h 75.6% 0 mm 104 W/m2
11:14 2.6 °C -1.1 °C 1015.8 hPa NW 7.1 km/h 37 km/h 76.3% 0 mm 63 W/m2
11:19 2.5 °C -1.1 °C 1016.1 hPa NW 8 km/h 37 km/h 77% 0 mm 54 W/m2
11:24 2.3 °C -1.3 °C 1016.1 hPa NW 13.8 km/h 37 km/h 77% 0 mm 65 W/m2
11:29 2.2 °C -1.4 °C 1016.1 hPa NW 13.5 km/h 37 km/h 77% 0 mm 253 W/m2
11:34 2.1 °C -1.4 °C 1016.5 hPa NW 9.3 km/h 37 km/h 77.2% 0 mm 253 W/m2
11:39 2.2 °C -1.2 °C 1016.5 hPa NW 11.9 km/h 24.1 km/h 78% 0 mm 141 W/m2
11:44 2.2 °C -1.4 °C 1016.5 hPa NW 10.3 km/h 25.7 km/h 77.1% 0 mm 114 W/m2
11:49 2.2 °C -1.6 °C 1016.5 hPa NNW 12.7 km/h 25.7 km/h 76.5% 0 mm 151 W/m2
11:54 2.2 °C -1.8 °C 1016.5 hPa NW 16.6 km/h 32.2 km/h 75.3% 0 mm 167 W/m2
11:59 2.1 °C -1.8 °C 1016.5 hPa NNW 13 km/h 32.2 km/h 75% 0 mm 192 W/m2
12:09 2.2 °C -1.9 °C 1016.5 hPa NW 10.9 km/h 24.1 km/h 74.3% 0 mm 313 W/m2
12:14 2.3 °C -1.8 °C 1016.5 hPa NW 11.9 km/h 25.7 km/h 74.1% 0 mm 179 W/m2
12:19 2.3 °C -1.9 °C 1016.8 hPa NW 8.9 km/h 25.7 km/h 74.1% 0 mm 149 W/m2
12:24 2.2 °C -1.8 °C 1016.8 hPa NW 10.9 km/h 25.7 km/h 74.6% 0 mm 172 W/m2
12:29 2.2 °C -1.9 °C 1016.8 hPa NW 6 km/h 25.7 km/h 74.2% 0 mm 185 W/m2
12:34 2.3 °C -1.8 °C 1016.8 hPa NNW 8.9 km/h 27.4 km/h 74.5% 0 mm 176 W/m2
12:39 2.3 °C -1.9 °C 1016.8 hPa NW 9.2 km/h 27.4 km/h 74% 0 mm 162 W/m2
12:44 2.2 °C -2.1 °C 1016.8 hPa WNW 12.7 km/h 27.4 km/h 73.2% 0 mm 125 W/m2
12:49 2.1 °C -2.1 °C 1016.8 hPa NW 10.3 km/h 27.4 km/h 73.6% 0 mm 178 W/m2
12:54 2.1 °C -2.2 °C 1016.8 hPa WNW 10.3 km/h 27.4 km/h 73.7% 0 mm 267 W/m2
12:59 2.2 °C -2 °C 1016.5 hPa NW 6.1 km/h 27.4 km/h 74% 0 mm 204 W/m2
13:04 2.3 °C -1.9 °C 1016.5 hPa NW 7.9 km/h 27.4 km/h 73.9% 0 mm 183 W/m2
13:09 2.3 °C -2.1 °C 1016.8 hPa NW 12.6 km/h 32.2 km/h 72.5% 0 mm 183 W/m2
13:13 2.3 °C -2.3 °C 1016.8 hPa NW 13.2 km/h 32.2 km/h 71.7% 0 mm 155 W/m2
13:19 2.1 °C -2.6 °C 1016.8 hPa NNW 13.2 km/h 32.2 km/h 71% 0 mm 132 W/m2
13:24 1.9 °C -2.8 °C 1016.8 hPa NW 10.3 km/h 32.2 km/h 70.6% 0 mm 142 W/m2
13:29 1.8 °C -3.1 °C 1017.2 hPa NNW 11.6 km/h 32.2 km/h 70% 0 mm 144 W/m2
13:34 1.8 °C -2.9 °C 1017.2 hPa NW 6 km/h 32.2 km/h 70.9% 0 mm 165 W/m2
13:39 2 °C -2.6 °C 1017.2 hPa WNW 12.4 km/h 24.1 km/h 71.7% 0 mm 243 W/m2
13:44 2.1 °C -2.7 °C 1017.2 hPa NW 5.1 km/h 24.1 km/h 70.3% 0 mm 165 W/m2
13:49 2.2 °C -2.7 °C 1017.5 hPa WNW 9.3 km/h 25.7 km/h 69.7% 0 mm 158 W/m2
13:54 2.2 °C -2.9 °C 1017.2 hPa NW 9.8 km/h 29 km/h 69% 0 mm 206 W/m2
13:59 2.1 °C -3 °C 1017.5 hPa WNW 7.6 km/h 29 km/h 68.8% 0 mm 97 W/m2
14:04 2 °C -3 °C 1017.5 hPa NW 4 km/h 29 km/h 69.4% 0 mm 174 W/m2
14:09 2.1 °C -2.9 °C 1017.8 hPa NW 9.7 km/h 24.1 km/h 70% 0 mm 216 W/m2
14:14 2.2 °C -3 °C 1017.8 hPa NW 10.1 km/h 27.4 km/h 68.7% 0 mm 197 W/m2
14:19 2.2 °C -3.1 °C 1017.8 hPa NW 13 km/h 35.4 km/h 68.2% 0 mm 181 W/m2
14:24 2.1 °C -3.1 °C 1017.5 hPa NW 7.1 km/h 35.4 km/h 68.7% 0 mm 165 W/m2
14:29 2 °C -3.1 °C 1017.5 hPa NW 10.3 km/h 35.4 km/h 69% 0 mm 160 W/m2
14:34 1.9 °C -3.2 °C 1017.5 hPa NW 8.7 km/h 35.4 km/h 69% 0 mm 88 W/m2
14:39 1.8 °C -3.2 °C 1017.5 hPa NW 6.8 km/h 22.5 km/h 69.2% 0 mm 70 W/m2
14:44 1.7 °C -3.3 °C 1017.5 hPa NW 3.9 km/h 22.5 km/h 69.3% 0 mm 60 W/m2
14:49 1.8 °C -3.3 °C 1017.8 hPa NNW 4.5 km/h 22.5 km/h 69% 0 mm 49 W/m2
14:54 1.8 °C -3.3 °C 1018.2 hPa NW 9.2 km/h 25.7 km/h 69% 0 mm 49 W/m2
14:59 1.7 °C -3.6 °C 1018.2 hPa NW 10.5 km/h 25.7 km/h 68.3% 0 mm 42 W/m2
15:04 1.4 °C -3.7 °C 1018.2 hPa NW 6.4 km/h 25.7 km/h 69% 0 mm 42 W/m2
15:09 1.3 °C -3.6 °C 1018.2 hPa NW 6 km/h 25.7 km/h 69.8% 0 mm 40 W/m2
15:14 1.2 °C -3.8 °C 1018.5 hPa NNW 10 km/h 27.4 km/h 69.4% 0 mm 35 W/m2
15:19 1 °C -4.1 °C 1018.5 hPa NNW 10.6 km/h 32.2 km/h 69% 0 mm 28 W/m2
15:24 0.9 °C -4.1 °C 1018.5 hPa NW 7.1 km/h 32.2 km/h 69.6% 0 mm 30 W/m2
15:29 0.8 °C -3.9 °C 1018.8 hPa NW 7.4 km/h 32.2 km/h 70.4% 0 mm 26 W/m2
15:34 0.7 °C -3.9 °C 1018.8 hPa NW 8.4 km/h 32.2 km/h 71% 0 mm 26 W/m2
15:39 0.6 °C -4.1 °C 1018.8 hPa NNW 10.3 km/h 25.7 km/h 71% 0 mm 25 W/m2
15:44 0.6 °C -4.1 °C 1019.2 hPa NW 10.9 km/h 25.7 km/h 71% 0 mm 23 W/m2
15:49 0.5 °C -4.2 °C 1019.2 hPa NNW 5.8 km/h 25.7 km/h 71% 0 mm 25 W/m2
15:54 0.4 °C -4 °C 1019.2 hPa NNW 5 km/h 25.7 km/h 72% 0 mm 26 W/m2
15:59 0.4 °C -4 °C 1019.5 hPa NW 4 km/h 25.7 km/h 72% 0 mm 21 W/m2
16:00 0.4 °C -4.1 °C 1019.5 hPa Calm   25.7 km/h 72% 0 mm 21 W/m2
16:09 0.4 °C -3.9 °C 1019.2 hPa NNW 7.2 km/h 27.4 km/h 72.8% 0 mm 11 W/m2
16:14 0.3 °C -4.1 °C 1019.5 hPa NW 3.5 km/h 27.4 km/h 72.5% 0 mm 7 W/m2
16:19 0.3 °C -4 °C 1019.5 hPa NNW 5.5 km/h 27.4 km/h 73% 0 mm 5 W/m2
16:24 0.2 °C -4.1 °C 1019.5 hPa NW 6.8 km/h 27.4 km/h 73% 0 mm 0 W/m2
16:29 0.1 °C -4 °C 1019.9 hPa NNW 8.2 km/h 27.4 km/h 73.9% 0 mm 0 W/m2
16:34 0.1 °C -4 °C 1019.9 hPa NW 8.9 km/h 27.4 km/h 74% 0 mm 0 W/m2
16:39 0 °C -4.1 °C 1019.9 hPa NNW 6.6 km/h 22.5 km/h 74% 0 mm 0 W/m2
16:44 0 °C -4.1 °C 1019.9 hPa NNW 5.5 km/h 22.5 km/h 74% 0 mm 0 W/m2
16:49 -0.1 °C -4.1 °C 1020.2 hPa NNW 4.5 km/h 22.5 km/h 74% 0 mm 0 W/m2
16:54 -0.1 °C -4.2 °C 1020.2 hPa NW 4.8 km/h 22.5 km/h 74% 0 mm 0 W/m2
16:59 -0.2 °C -4.1 °C 1020.2 hPa NW 2.7 km/h 22.5 km/h 74.9% 0 mm 0 W/m2
17:04 -0.2 °C -4.2 °C 1020.2 hPa NNW 5.6 km/h 22.5 km/h 74.6% 0 mm 0 W/m2
17:09 -0.3 °C -4.3 °C 1020.2 hPa NNW 6 km/h 19.3 km/h 74.2% 0 mm 0 W/m2
17:14 -0.3 °C -4.4 °C 1020.2 hPa NW 10.6 km/h 24.1 km/h 74% 0 mm 0 W/m2
17:19 -0.3 °C -4.4 °C 1020.2 hPa NW 6 km/h 24.1 km/h 74% 0 mm 0 W/m2
17:24 -0.4 °C -4.4 °C 1020.2 hPa NNW 6.9 km/h 24.1 km/h 74% 0 mm 0 W/m2
17:29 -0.4 °C -4.5 °C 1020.5 hPa NNW 6.1 km/h 24.1 km/h 74% 0 mm 0 W/m2
17:34 -0.4 °C -4.4 °C 1020.5 hPa NW 6 km/h 24.1 km/h 74.4% 0 mm 0 W/m2
17:39 -0.5 °C -4.4 °C 1020.5 hPa NW 2.9 km/h 16.1 km/h 74.8% 0 mm 0 W/m2
17:44 -0.5 °C -4.4 °C 1020.5 hPa NNW 2.7 km/h 16.1 km/h 75% 0 mm 0 W/m2
17:49 -0.6 °C -4.4 °C 1020.5 hPa NW 5.5 km/h 16.1 km/h 75% 0 mm 0 W/m2
17:54 -0.6 °C -4.4 °C 1020.5 hPa NNW 7.6 km/h 22.5 km/h 75.3% 0 mm 0 W/m2
17:59 -0.7 °C -4.5 °C 1020.5 hPa NNW 7.7 km/h 22.5 km/h 75.1% 0 mm 0 W/m2
18:04 -0.7 °C -4.6 °C 1020.5 hPa NNW 8.4 km/h 24.1 km/h 75% 0 mm 0 W/m2
18:09 -0.7 °C -4.6 °C 1020.5 hPa NNW 6.9 km/h 24.1 km/h 74.8% 0 mm 0 W/m2
18:14 -0.7 °C -4.8 °C 1020.5 hPa NNW 5.3 km/h 24.1 km/h 74.2% 0 mm 0 W/m2
18:19 -0.8 °C -4.7 °C 1020.5 hPa NNW 6 km/h 24.1 km/h 74.6% 0 mm 0 W/m2
18:24 -0.8 °C -4.7 °C 1020.5 hPa NNW 2.9 km/h 24.1 km/h 75% 0 mm 0 W/m2
18:29 -0.9 °C -4.7 °C 1020.9 hPa NNW 2.6 km/h 24.1 km/h 75% 0 mm 0 W/m2
18:34 -0.9 °C -4.7 °C 1020.9 hPa NNW 2.9 km/h 24.1 km/h 75.4% 0 mm 0 W/m2
18:39 -1 °C -4.7 °C 1020.9 hPa NW 4.7 km/h 17.7 km/h 76% 0 mm 0 W/m2
18:44 -1.1 °C -4.7 °C 1020.9 hPa NW 8.2 km/h 20.9 km/h 76% 0 mm 0 W/m2
18:49 -1.1 °C -4.8 °C 1021.2 hPa NNW 9.5 km/h 20.9 km/h 76% 0 mm 0 W/m2
18:54 -1.2 °C -4.8 °C 1021.2 hPa NNW 8.5 km/h 20.9 km/h 76% 0 mm 0 W/m2
18:59 -1.2 °C -4.8 °C 1021.2 hPa NNW 5.5 km/h 20.9 km/h 76% 0 mm 0 W/m2
19:04 -1.2 °C -4.9 °C 1021.2 hPa NNW 2.7 km/h 20.9 km/h 76% 0 mm 0 W/m2
19:09 -1.2 °C -4.9 °C 1021.6 hPa NNW 3.4 km/h 19.3 km/h 76% 0 mm 0 W/m2
19:14 -1.3 °C -5 °C 1021.6 hPa NNW 5.3 km/h 19.3 km/h 76% 0 mm 0 W/m2
19:19 -1.3 °C -5 °C 1021.9 hPa NNW 3.9 km/h 19.3 km/h 76% 0 mm 0 W/m2
19:24 -1.4 °C -5.1 °C 1021.9 hPa NNW 6.1 km/h 19.3 km/h 76% 0 mm 0 W/m2
19:29 -1.4 °C -5.2 °C 1021.9 hPa NNW 4.7 km/h 22.5 km/h 75.7% 0 mm 0 W/m2
19:34 -1.4 °C -5.3 °C 1021.9 hPa NW 3.7 km/h 22.5 km/h 75% 0 mm 0 W/m2
19:39 -1.5 °C -5.3 °C 1022.2 hPa NNW 2.9 km/h 19.3 km/h 75% 0 mm 0 W/m2
19:44 -1.5 °C -5.3 °C 1022.2 hPa NW 3.2 km/h 19.3 km/h 75% 0 mm 0 W/m2
19:49 -1.6 °C -5.4 °C 1022.2 hPa NNW 4.7 km/h 19.3 km/h 75.1% 0 mm 0 W/m2
19:54 -1.6 °C -5.3 °C 1022.2 hPa NNW 3.5 km/h 19.3 km/h 75.6% 0 mm 0 W/m2
19:59 -1.6 °C -5.3 °C 1022.2 hPa NNW 4.3 km/h 19.3 km/h 76% 0 mm 0 W/m2
20:09 -1.7 °C -5.3 °C 1022.2 hPa NNW 2.9 km/h 16.1 km/h 76% 0 mm 0 W/m2
20:14 -1.7 °C -5.4 °C 1022.6 hPa NNW 6.3 km/h 19.3 km/h 76% 0 mm 0 W/m2
20:19 -1.7 °C -5.4 °C 1022.9 hPa NNW 1.9 km/h 19.3 km/h 76% 0 mm 0 W/m2
20:24 -1.8 °C -5.4 °C 1022.9 hPa NNW 2.9 km/h 19.3 km/h 76% 0 mm 0 W/m2
20:29 -1.8 °C -5.4 °C 1022.9 hPa NW 2.7 km/h 19.3 km/h 76% 0 mm 0 W/m2
20:34 -1.8 °C -5.5 °C 1022.9 hPa NNW 2.3 km/h 19.3 km/h 76% 0 mm 0 W/m2
20:39 -1.8 °C -5.5 °C 1022.9 hPa NNW 4.7 km/h 12.9 km/h 76% 0 mm 0 W/m2
20:44 -1.9 °C -5.6 °C 1022.9 hPa NW 6.3 km/h 19.3 km/h 76% 0 mm 0 W/m2
20:49 -1.9 °C -5.6 °C 1022.9 hPa NW 6.3 km/h 22.5 km/h 76% 0 mm 0 W/m2
20:54 -1.9 °C -5.6 °C 1022.9 hPa NNW 3.5 km/h 22.5 km/h 76% 0 mm 0 W/m2
20:59 -1.9 °C -5.6 °C 1022.9 hPa NNW 5.6 km/h 22.5 km/h 76% 0 mm 0 W/m2
21:04 -2 °C -5.7 °C 1023.2 hPa NW 1 km/h 22.5 km/h 76% 0 mm 0 W/m2
21:09 -2 °C -5.7 °C 1023.2 hPa NNW 3.4 km/h 11.3 km/h 76% 0 mm 0 W/m2
21:14 -2.1 °C -5.8 °C 1023.2 hPa NW 5.3 km/h 17.7 km/h 75.7% 0 mm 0 W/m2
21:19 -2.1 °C -5.9 °C 1023.2 hPa NNW 2.1 km/h 17.7 km/h 75% 0 mm 0 W/m2
21:24 -2.1 °C -5.9 °C 1023.2 hPa NNW 1.9 km/h 17.7 km/h 75% 0 mm 0 W/m2
21:29 -2.1 °C -5.9 °C 1023.2 hPa NNW 2.9 km/h 17.7 km/h 75% 0 mm 0 W/m2
21:34 -2.2 °C -6 °C 1023.2 hPa NNW 2.1 km/h 17.7 km/h 75% 0 mm 0 W/m2
21:39 -2.2 °C -6 °C 1023.2 hPa NNW 2.3 km/h 9.7 km/h 75% 0 mm 0 W/m2
21:44 -2.2 °C -6.1 °C 1023.2 hPa NNW 2.6 km/h 11.3 km/h 75% 0 mm 0 W/m2
21:49 -2.3 °C -6.1 °C 1023.2 hPa NNW 1.4 km/h 11.3 km/h 75% 0 mm 0 W/m2
21:54 -2.3 °C -6.1 °C 1023.2 hPa NNW 1 km/h 11.3 km/h 75% 0 mm 0 W/m2
21:59 -2.3 °C -6.1 °C 1023.2 hPa NNW 1.4 km/h 11.3 km/h 75.1% 0 mm 0 W/m2
22:04 -2.3 °C -6.1 °C 1023.2 hPa NNW 3.5 km/h 11.3 km/h 75.5% 0 mm 0 W/m2
22:09 -2.4 °C -6.1 °C 1023.2 hPa NNW 3.4 km/h 9.7 km/h 76% 0 mm 0 W/m2
22:14 -2.4 °C -6.1 °C 1023.2 hPa NNW 1.1 km/h 11.3 km/h 76% 0 mm 0 W/m2
22:19 -2.5 °C -6.1 °C 1023.2 hPa NNW 2.3 km/h 11.3 km/h 76% 0 mm 0 W/m2
22:24 -2.6 °C -6.2 °C 1023.2 hPa NNW 1 km/h 11.3 km/h 76% 0 mm 0 W/m2
22:29 -2.6 °C -6.2 °C 1023.2 hPa NNW 1 km/h 11.3 km/h 76% 0 mm 0 W/m2
22:34 -2.7 °C -6.3 °C 1023.2 hPa NNW 0.5 km/h 11.3 km/h 76.1% 0 mm 0 W/m2
22:39 -2.7 °C -6.2 °C 1023.2 hPa NNW 0.2 km/h 4.8 km/h 77% 0 mm 0 W/m2
22:44 -2.8 °C -6.2 °C 1023.2 hPa NNW 0.5 km/h 6.4 km/h 77% 0 mm 0 W/m2
22:49 -2.8 °C -6.3 °C 1023.2 hPa NNW 1.3 km/h 8 km/h 77% 0 mm 0 W/m2
22:54 -2.9 °C -6.3 °C 1023.2 hPa NNW 1.4 km/h 8 km/h 77.3% 0 mm 0 W/m2
22:59 -2.9 °C -6.2 °C 1023.2 hPa NNW 0.5 km/h 8 km/h 78% 0 mm 0 W/m2
23:00 -2.9 °C -6.2 °C 1023.2 hPa Calm   8 km/h 78% 0 mm 0 W/m2
23:09 -3 °C -6.3 °C 1023.2 hPa Calm     78% 0 mm 0 W/m2
23:14 -3.1 °C -6.3 °C 1023.2 hPa Calm     78% 0 mm 0 W/m2
23:19 -3.1 °C -6.3 °C 1023.2 hPa NNW 1 km/h 6.4 km/h 78.5% 0 mm 0 W/m2
23:24 -3.2 °C -6.3 °C 1023.6 hPa NNW 1 km/h 6.4 km/h 79% 0 mm 0 W/m2
23:29 -3.2 °C -6.3 °C 1023.6 hPa NNW 0.5 km/h 6.4 km/h 79% 0 mm 0 W/m2
23:34 -3.2 °C -6.3 °C 1023.6 hPa NNW 1.9 km/h 8 km/h 79% 0 mm 0 W/m2
23:39 -3.2 °C -6.4 °C 1023.6 hPa Calm   8 km/h 79% 0 mm 0 W/m2
23:44 -3.3 °C -6.4 °C 1023.2 hPa Calm   8 km/h 79% 0 mm 0 W/m2
23:48 -3.3 °C -6.4 °C 1023.2 hPa NNW 0.2 km/h 8 km/h 79% 0 mm 0 W/m2
Hartford County Weather
Compliments of Weather Underground - 2 mb